Weerspreuk van de dag: Als in januari de muggen zwermen,dan kun je in maart de oren wermen.
Het weer levert geen direct gevaar op.    Er zijn geen waarschuwingen afgegeven.


Onweer radar Meer informatie blitzortung!


Regen radar Meer informatie rain snow radar


Bekijk deze sites ook eens:

FPL Automotive (TIP)

Autostekkers.nl (TIP)

Over Luyksgestel

De Kempen, mijn omgeving

BOL.com

Weerstation Noordbergum

Inktweb

Weerstation Hapert

Parfumswinkel TIP

Weerstation Hoogeloon

Weerstation Son&Breugel

Weerstation Castaert

Smartphonehoesjes

Weerstation Tilburg Reeshof

Weerstation Scheulder

Weerverwachting Samos

Samos actueel

Weerwoord (forum)

Griekenlandforum

Vakantie naar Samos

Winterzon

Canon

Lampen koopjeshoek

Wolven in Nederland



Weather Underground Historische gegevens

Dagelijkse Samenvatting januari 18, 2019 Eenheden:  Metrisch    Engels   Beide
« Vorige Dag
Volgende Dag »
Dagelijkse Wekelijkse Maandelijkse Jaarlijkse Aangepaste
  Huidig: Hoog: Laag: Gemiddeld:
Temperatuur: -17.9 °C -17.8 °C -20.1 °C -18.6 °C
Dauwpunt: -18.2 °C -17.8 °C -20.4 °C -19 °C
Vochtigheid: 96 % Humidity % 95 % 95 %
Wind snelheid: 2.3 km/h 0 km/h 0 km/h 2.6 km/h
Windvlaag: 12.9 km/h 0 km/h - -
Wind:SSW - - South
Luchtdruk: 34496.6 hPa 0 hPa 34293.4 hPa -
Neerslag: 20.32 mm      
Historical Graphs
 
 
Tabel voor januari 18, 2019
Tijd Temperatuur Dauwpunt Luchtdruk Wind Wind snelheid Windvlaag Vochtigheid Regenval per uur
-17.8 °C -17.8 °C 0 hPa Calm     Humidity % 0 mm
00:00 -17.7 °C -18.1 °C 34293.4 hPa SSW 7.6 km/h 12.9 km/h 95 % 0 mm
00:05 -17.7 °C -18.1 °C 34293.4 hPa SSW 5.1 km/h 18.2 km/h 95 % 0 mm
00:10 -17.7 °C -18.1 °C 34293.4 hPa SSW 5.1 km/h 12.9 km/h 95 % 0 mm
00:15 -17.7 °C -18.1 °C 34303.6 hPa WSW 5.1 km/h 15.6 km/h 95 % 0 mm
00:20 -17.7 °C -18.1 °C 34303.6 hPa SSW 10.3 km/h 15.6 km/h 95 % 0 mm
00:25 -17.7 °C -18.1 °C 34303.6 hPa SSW 5.1 km/h 10.3 km/h 95 % 0 mm
00:30 -17.7 °C -18.1 °C 34303.6 hPa SW 10.3 km/h 12.9 km/h 95 % 0 mm
00:35 -17.7 °C -18.1 °C 34303.6 hPa SW 7.6 km/h 10.3 km/h 95 % 0 mm
00:40 -17.7 °C -18.1 °C 34303.6 hPa SW 5.1 km/h 15.6 km/h 95 % 0 mm
00:45 -17.7 °C -18.1 °C 34313.7 hPa WSW 5.1 km/h 10.3 km/h 95 % 0 mm
00:50 -17.7 °C -18.1 °C 34313.7 hPa SSW 2.3 km/h 12.9 km/h 95 % 0 mm
00:55 -17.8 °C -18.2 °C 34313.7 hPa SW 5.1 km/h 10.3 km/h 95 % 0 mm
01:00 -17.8 °C -18.2 °C 34313.7 hPa SSW 5.1 km/h 12.9 km/h 95 % 0 mm
01:05 -17.8 °C -18.2 °C 34313.7 hPa SSW 10.3 km/h 12.9 km/h 95 % 0 mm
01:10 -17.8 °C -18.2 °C 34313.7 hPa SSW 7.6 km/h 12.9 km/h 95 % 0 mm
01:15 -17.8 °C -18.2 °C 34327.3 hPa SW 10.3 km/h 10.3 km/h 95 % 0 mm
01:20 -17.8 °C -18.2 °C 34327.3 hPa West 5.1 km/h 5.1 km/h 95 % 0 mm
01:25 -17.8 °C -18.2 °C 34327.3 hPa SW 7.6 km/h 12.9 km/h 95 % 0 mm
01:31 -17.9 °C -18.3 °C 34327.3 hPa WSW 10.3 km/h 10.3 km/h 95 % 0 mm
01:36 -17.9 °C -18.3 °C 34327.3 hPa Calm   5.1 km/h 95 % 0 mm
01:41 -17.9 °C -18.3 °C 34327.3 hPa Calm   7.7 km/h 95 % 0 mm
01:46 -17.9 °C -18.3 °C 34337.4 hPa WSW 5.1 km/h 10.3 km/h 95 % 0 mm
01:51 -17.9 °C -18.3 °C 34337.4 hPa Calm   7.7 km/h 95 % 0 mm
01:56 -18 °C -18.4 °C 34337.4 hPa Calm     95 % 0 mm
02:01 -18 °C -18.4 °C 34337.4 hPa Calm   5.1 km/h 95 % 0 mm
02:06 -18.1 °C -18.4 °C 34337.4 hPa WSW 2.3 km/h 2.6 km/h 95 % 0 mm
02:11 -18.1 °C -18.5 °C 34337.4 hPa WSW 5.1 km/h 5.1 km/h 95 % 0 mm
02:16 -18.1 °C -18.5 °C 34347.6 hPa SW 10.3 km/h 12.9 km/h 95 % 0 mm
02:21 -18.1 °C -18.5 °C 34347.6 hPa SW 17.9 km/h 18.2 km/h 95 % 0 mm
02:26 -18.1 °C -18.4 °C 34347.6 hPa SW 5.1 km/h 10.3 km/h 95 % 0 mm
02:31 -18 °C -18.4 °C 34361.1 hPa SW 12.7 km/h 12.9 km/h 95 % 0 mm
02:36 -18 °C -18.4 °C 34361.1 hPa WSW 10.3 km/h 15.6 km/h 95 % 0 mm
02:41 -18 °C -18.4 °C 34361.1 hPa SW 7.6 km/h 12.9 km/h 95 % 0 mm
02:46 -18 °C -18.4 °C 34361.1 hPa WSW 7.6 km/h 12.9 km/h 95 % 0 mm
02:51 -18.1 °C -18.4 °C 34361.1 hPa SW 2.3 km/h 10.3 km/h 95 % 0 mm
02:56 -18.1 °C -18.5 °C 34361.1 hPa SW 5.1 km/h 12.9 km/h 95 % 0 mm
03:01 -18.1 °C -18.5 °C 34371.3 hPa SW 12.7 km/h 15.6 km/h 95 % 0 mm
03:06 -18.1 °C -18.5 °C 34371.3 hPa SSW 5.1 km/h 12.9 km/h 95 % 0 mm
03:11 -18.1 °C -18.5 °C 34371.3 hPa SW 2.3 km/h 10.3 km/h 95 % 0 mm
03:16 -18.1 °C -18.5 °C 34371.3 hPa SW 10.3 km/h 15.6 km/h 95 % 0 mm
03:21 -18.1 °C -18.5 °C 34371.3 hPa SW 2.3 km/h 7.7 km/h 95 % 0 mm
03:26 -18.1 °C -18.5 °C 34371.3 hPa WSW 5.1 km/h 10.3 km/h 95 % 0 mm
03:31 -18.2 °C -18.6 °C 34371.3 hPa SSW 7.6 km/h 10.3 km/h 95 % 0 mm
03:36 -18.2 °C -18.6 °C 34371.3 hPa SW 2.3 km/h 7.7 km/h 95 % 0 mm
03:42 -18.2 °C -18.6 °C 34371.3 hPa SW 2.3 km/h 5.1 km/h 95 % 0 mm
03:47 -18.2 °C -18.6 °C 34395 hPa Calm   7.7 km/h 95 % 0 mm
03:52 -18.2 °C -18.6 °C 34395 hPa Calm   10.3 km/h 95 % 0 mm
03:57 -18.2 °C -18.6 °C 34395 hPa SW 5.1 km/h 5.1 km/h 95 % 0 mm
04:02 -18.3 °C -18.7 °C 34395 hPa Calm   5.1 km/h 95 % 0 mm
04:07 -18.3 °C -18.7 °C 34395 hPa Calm   5.1 km/h 95 % 0 mm
04:12 -18.3 °C -18.7 °C 34395 hPa Calm   5.1 km/h 95 % 0 mm
04:17 -18.4 °C -18.8 °C 34395 hPa SW 5.1 km/h 5.1 km/h 95 % 0 mm
04:22 -18.4 °C -18.8 °C 34395 hPa SW 2.3 km/h 5.1 km/h 95 % 0 mm
04:27 -18.4 °C -18.8 °C 34395 hPa SW 2.3 km/h 5.1 km/h 95 % 0 mm
04:32 -18.4 °C -18.8 °C 34405.1 hPa SW 2.3 km/h 5.1 km/h 95 % 0 mm
04:37 -18.4 °C -18.8 °C 34405.1 hPa SW 2.3 km/h 5.1 km/h 95 % 0 mm
04:43 -18.4 °C -18.8 °C 34405.1 hPa Calm   2.6 km/h 95 % 0 mm
04:48 -18.4 °C -18.8 °C 34405.1 hPa SW 5.1 km/h 5.1 km/h 95 % 0 mm
04:53 -18.4 °C -18.8 °C 34405.1 hPa Calm     95 % 0 mm
04:58 -18.5 °C -18.9 °C 34405.1 hPa Calm     95 % 0 mm
05:03 -18.6 °C -18.9 °C 34405.1 hPa Calm   2.6 km/h 95 % 0 mm
05:08 -18.6 °C -19 °C 34405.1 hPa Calm     95 % 0 mm
05:13 -18.7 °C -19.1 °C 34405.1 hPa Calm     95 % 0 mm
05:19 -18.8 °C -19.2 °C 34418.7 hPa Calm     95 % 0 mm
05:24 -18.8 °C -19.2 °C 34418.7 hPa Calm     95 % 0 mm
05:29 -18.8 °C -19.2 °C 34428.8 hPa Calm   2.6 km/h 95 % 0 mm
05:34 -18.9 °C -19.3 °C 34428.8 hPa Calm   5.1 km/h 95 % 0 mm
05:39 -18.9 °C -19.3 °C 34428.8 hPa Calm   2.6 km/h 95 % 0 mm
05:44 -18.9 °C -19.3 °C 34428.8 hPa Calm     95 % 0 mm
05:49 -19 °C -19.4 °C 34428.8 hPa Calm     95 % 0 mm
05:55 -19 °C -19.4 °C 34428.8 hPa Calm     95 % 0 mm
06:00 -19.1 °C -19.4 °C 34428.8 hPa Calm     95 % 0 mm
06:06 -19.1 °C -19.5 °C 34428.8 hPa Calm     95 % 0 mm
06:11 -19.2 °C -19.6 °C 34428.8 hPa Calm     95 % 0 mm
06:16 -19.3 °C -19.7 °C 34428.8 hPa Calm     95 % 0 mm
06:21 -19.3 °C -19.7 °C 34428.8 hPa Calm     95 % 0 mm
06:26 -19.3 °C -19.7 °C 34428.8 hPa Calm     95 % 0 mm
06:31 -19.4 °C -19.8 °C 34428.8 hPa Calm     95 % 0 mm
06:36 -19.5 °C -19.9 °C 34428.8 hPa Calm     95 % 0 mm
06:41 -19.5 °C -19.9 °C 34428.8 hPa Calm   2.6 km/h 95 % 0 mm
06:47 -19.6 °C -19.9 °C 34442.4 hPa Calm     95 % 0 mm
06:52 -19.6 °C -20 °C 34442.4 hPa Calm     95 % 0 mm
06:58 -19.6 °C -20 °C 34442.4 hPa Calm     95 % 0 mm
07:03 -19.7 °C -20.1 °C 34452.6 hPa Calm     95 % 0 mm
07:08 -19.7 °C -20.1 °C 34452.6 hPa Calm     95 % 0 mm
07:13 -19.8 °C -20.2 °C 34452.6 hPa Calm     95 % 0 mm
07:18 -19.8 °C -20.2 °C 34442.4 hPa Calm     95 % 0 mm
07:23 -19.8 °C -20.2 °C 34442.4 hPa Calm     95 % 0 mm
07:28 -19.8 °C -20.2 °C 34442.4 hPa Calm     95 % 0 mm
07:33 -19.8 °C -20.2 °C 34452.6 hPa Calm     95 % 0 mm
07:38 -19.9 °C -20.3 °C 34452.6 hPa Calm     95 % 0 mm
07:44 -19.9 °C -20.3 °C 34452.6 hPa Calm     95 % 0 mm
07:49 -19.9 °C -20.3 °C 34452.6 hPa Calm     95 % 0 mm
07:54 -19.9 °C -20.3 °C 34452.6 hPa Calm     95 % 0 mm
07:59 -19.9 °C -20.3 °C 34452.6 hPa Calm     95 % 0 mm
08:05 -19.9 °C -20.3 °C 34462.7 hPa Calm     95 % 0 mm
08:10 -20 °C -20.4 °C 34462.7 hPa Calm     95 % 0 mm
08:15 -20.1 °C -20.4 °C 34462.7 hPa Calm   2.6 km/h 95 % 0 mm
08:20 -20.1 °C -20.4 °C 34462.7 hPa SW 2.3 km/h 2.6 km/h 95 % 0 mm
08:25 -20.1 °C -20.4 °C 34462.7 hPa SW 2.3 km/h 2.6 km/h 95 % 0 mm
08:30 -20 °C -20.4 °C 34476.3 hPa Calm   2.6 km/h 95 % 0 mm
08:35 -19.9 °C -20.3 °C 34476.3 hPa SW 2.3 km/h 5.1 km/h 95 % 0 mm
08:40 -19.9 °C -20.3 °C 34476.3 hPa Calm     95 % 0 mm
08:45 -19.9 °C -20.3 °C 34486.4 hPa Calm   2.6 km/h 95 % 0 mm
08:50 -19.9 °C -20.3 °C 34486.4 hPa Calm     95 % 0 mm
08:55 -19.9 °C -20.3 °C 34486.4 hPa Calm     95 % 0 mm
09:00 -19.9 °C -20.3 °C 34486.4 hPa Calm     95 % 0 mm
09:05 -19.9 °C -20.3 °C 34486.4 hPa Calm     95 % 0 mm
09:10 -19.9 °C -20.3 °C 34486.4 hPa Calm     95 % 0 mm
09:15 -19.9 °C -20.3 °C 34486.4 hPa Calm   2.6 km/h 95 % 0 mm
09:20 -19.9 °C -20.3 °C 34486.4 hPa SW 2.3 km/h 5.1 km/h 95 % 0 mm
09:26 -19.8 °C -20.2 °C 34486.4 hPa Calm   5.1 km/h 95 % 0 mm
09:31 -19.7 °C -20 °C 34496.6 hPa SSE 5.1 km/h 5.1 km/h 96 % 0 mm
09:36 -19.6 °C -20 °C 34496.6 hPa SSE 2.3 km/h 5.1 km/h 95 % 0 mm
09:41 -19.6 °C -19.9 °C 34496.6 hPa SSE 2.3 km/h 5.1 km/h 95 % 0 mm
09:46 -19.6 °C -19.9 °C 34496.6 hPa Calm   5.1 km/h 95 % 0 mm
09:51 -19.5 °C -19.8 °C 34496.6 hPa Calm   2.6 km/h 96 % 0 mm
09:56 -19.4 °C -19.7 °C 34496.6 hPa Calm     96 % 0 mm
10:01 -19.4 °C -19.7 °C 34496.6 hPa Calm     96 % 0 mm
10:06 -19.3 °C -19.6 °C 34496.6 hPa Calm   2.6 km/h 96 % 0 mm
10:12 -19.3 °C -19.6 °C 34496.6 hPa SSE 5.1 km/h 5.1 km/h 96 % 0 mm
10:17 -19.2 °C -19.5 °C 34496.6 hPa SSE 2.3 km/h 5.1 km/h 96 % 0 mm
10:22 -19.2 °C -19.5 °C 34496.6 hPa Calm   2.6 km/h 96 % 0 mm
10:27 -19.2 °C -19.4 °C 34496.6 hPa Calm   5.1 km/h 96 % 0 mm
10:32 -19.2 °C -19.4 °C 34510.1 hPa Calm   2.6 km/h 96 % 0 mm
10:37 -19.2 °C -19.4 °C 34510.1 hPa SSE 5.1 km/h 5.1 km/h 96 % 0 mm
10:42 -19.1 °C -19.4 °C 34510.1 hPa Calm   7.7 km/h 96 % 0 mm
10:47 -19.1 °C -19.4 °C 34520.3 hPa Calm   2.6 km/h 96 % 0 mm
10:52 -19 °C -19.3 °C 34520.3 hPa SSE 2.3 km/h 5.1 km/h 96 % 0 mm
10:57 -18.9 °C -19.2 °C 34520.3 hPa Calm   5.1 km/h 96 % 0 mm
11:02 -18.8 °C -19.1 °C 34520.3 hPa Calm   2.6 km/h 96 % 0 mm
11:07 -18.7 °C -19.1 °C 34520.3 hPa SSE 5.1 km/h 10.3 km/h 96 % 0 mm
11:12 -18.7 °C -19 °C 34520.3 hPa SSE 5.1 km/h 7.7 km/h 96 % 0 mm
11:17 -18.6 °C -18.9 °C 34520.3 hPa SSE 2.3 km/h 5.1 km/h 96 % 0 mm
11:22 -18.6 °C -18.9 °C 34520.3 hPa SSE 5.1 km/h 7.7 km/h 96 % 0 mm
11:27 -18.6 °C -18.9 °C 34520.3 hPa SSE 5.1 km/h 12.9 km/h 96 % 0 mm
11:32 -18.6 °C -18.9 °C 34520.3 hPa SSE 2.3 km/h 10.3 km/h 96 % 0 mm
11:37 -18.5 °C -18.8 °C 34520.3 hPa SSE 2.3 km/h 5.1 km/h 96 % 0 mm
11:42 -18.4 °C -18.8 °C 34520.3 hPa Calm   5.1 km/h 96 % 0 mm
11:47 -18.4 °C -18.7 °C 34520.3 hPa SSE 2.3 km/h 5.1 km/h 96 % 0 mm
11:52 -18.3 °C -18.7 °C 34520.3 hPa SSE 2.3 km/h 10.3 km/h 96 % 0 mm
11:57 -18.3 °C -18.7 °C 34520.3 hPa SSE 5.1 km/h 5.1 km/h 96 % 0 mm
12:02 -18.3 °C -18.6 °C 34520.3 hPa SE 2.3 km/h 12.9 km/h 96 % 0 mm
12:07 -18.3 °C -18.7 °C 34520.3 hPa SE 5.1 km/h 7.7 km/h 96 % 0 mm
12:13 -18.3 °C -18.7 °C 34520.3 hPa SE 5.1 km/h 10.3 km/h 96 % 0 mm
12:18 -18.3 °C -18.7 °C 34520.3 hPa SE 2.3 km/h 10.3 km/h 96 % 0 mm
12:23 -18.3 °C -18.7 °C 34520.3 hPa Calm   5.1 km/h 96 % 0 mm
12:28 -18.3 °C -18.6 °C 34520.3 hPa Calm   2.6 km/h 96 % 0 mm
12:33 -18.2 °C -18.5 °C 34520.3 hPa SE 2.3 km/h 12.9 km/h 96 % 0 mm
12:38 -18.2 °C -18.5 °C 34520.3 hPa SE 5.1 km/h 10.3 km/h 96 % 7.62 mm
12:43 -18.1 °C -18.4 °C 34520.3 hPa SE 2.3 km/h 5.1 km/h 96 % 7.62 mm
12:48 -18.1 °C -18.4 °C 34520.3 hPa Calm   5.1 km/h 96 % 7.62 mm
12:53 -18.1 °C -18.4 °C 34520.3 hPa SE 2.3 km/h 10.3 km/h 96 % 7.62 mm
12:58 -18.1 °C -18.4 °C 34520.3 hPa SE 5.1 km/h 10.3 km/h 96 % 7.62 mm
13:03 -18.1 °C -18.4 °C 34520.3 hPa SE 5.1 km/h 12.9 km/h 96 % 7.62 mm
13:08 -18.1 °C -18.4 °C 34520.3 hPa SSE 5.1 km/h 12.9 km/h 96 % 12.7 mm
13:13 -18.1 °C -18.4 °C 34520.3 hPa SSE 2.3 km/h 7.7 km/h 96 % 12.7 mm
13:18 -18.1 °C -18.4 °C 34510.1 hPa Calm   7.7 km/h 96 % 12.7 mm
13:23 -18 °C -18.3 °C 34510.1 hPa East 2.3 km/h 7.7 km/h 96 % 12.7 mm
13:28 -18 °C -18.3 °C 34510.1 hPa SE 10.3 km/h 12.9 km/h 96 % 12.7 mm
13:33 -18 °C -18.3 °C 34496.6 hPa SE 2.3 km/h 10.3 km/h 96 % 12.7 mm
13:38 -18 °C -18.3 °C 34496.6 hPa Calm   5.1 km/h 96 % 7.62 mm
13:43 -17.9 °C -18.3 °C 34496.6 hPa Calm   5.1 km/h 96 % 7.62 mm
13:48 -17.9 °C -18.3 °C 34496.6 hPa SE 2.3 km/h 7.7 km/h 96 % 7.62 mm
13:53 -17.9 °C -18.3 °C 34496.6 hPa SE 2.3 km/h 5.1 km/h 96 % 7.62 mm
13:58 -17.9 °C -18.3 °C 34496.6 hPa SE 2.3 km/h 5.1 km/h 96 % 12.7 mm
14:03 -17.9 °C -18.2 °C 34496.6 hPa Calm   5.1 km/h 96 % 12.7 mm
14:09 -17.9 °C -18.2 °C 34496.6 hPa Calm   7.7 km/h 96 % 7.62 mm
14:14 -17.9 °C -18.2 °C 34496.6 hPa Calm   10.3 km/h 96 % 7.62 mm
14:19 -17.9 °C -18.2 °C 34496.6 hPa Calm   5.1 km/h 96 % 7.62 mm
14:24 -17.9 °C -18.2 °C 34496.6 hPa SE 2.3 km/h 5.1 km/h 96 % 7.62 mm
14:29 -17.8 °C -18.2 °C 34496.6 hPa Calm   7.7 km/h 96 % 7.62 mm
14:34 -17.8 °C -18.2 °C 34496.6 hPa SE 10.3 km/h 10.3 km/h 96 % 12.7 mm
14:39 -17.8 °C -18.2 °C 34496.6 hPa SE 2.3 km/h 5.1 km/h 96 % 12.7 mm
14:44 -17.8 °C -18.2 °C 34496.6 hPa Calm   5.1 km/h 96 % 12.7 mm
14:49 -17.8 °C -18.2 °C 34496.6 hPa SE 5.1 km/h 10.3 km/h 96 % 12.7 mm
14:54 -17.8 °C -18.2 °C 34496.6 hPa SSE 2.3 km/h 12.9 km/h 96 % 12.7 mm
14:59 -17.9 °C -18.2 °C 34496.6 hPa Calm   10.3 km/h 96 % 7.62 mm
15:04 -17.9 °C -18.2 °C 34496.6 hPa SE 2.3 km/h 5.1 km/h 96 % 7.62 mm
15:09 -17.8 °C -18.2 °C 34496.6 hPa SE 2.3 km/h 10.3 km/h 96 % 7.62 mm
15:14 -17.9 °C -18.2 °C 34496.6 hPa SE 2.3 km/h 10.3 km/h 96 % 7.62 mm
15:19 -17.9 °C -18.2 °C 34496.6 hPa Calm   7.7 km/h 96 % 7.62 mm
15:24 -17.9 °C -18.2 °C 34496.6 hPa SSW 2.3 km/h 12.9 km/h 96 % 7.62 mm
Weerstation Luyksgestel
Gegevens verzameld door Weather Underground - 3.5 mb

Script ontwikkeld door  Jim McMurry - jmcmurry@mwt.net Aangepast voor de template door  Wim van der Kuil - Leuven-Template.eu

U vindt ons ook hier:

Het Weer Aktueel

UK Metoffice

European Weather Network

Weather Underground

AWEKAS



Lekker winkelen zonder zorgen - Gratis verzending en retour